sensor_id;sensor_type;location;lat;lon;timestamp;P1;durP1;ratioP1;P2;durP2;ratioP2
56667;SDS011;42542;48.360;10.958;2023-02-03T00:02:51;8.50;;;1.90;;
56667;SDS011;42542;48.360;10.958;2023-02-03T00:05:53;6.68;;;2.17;;
56667;SDS011;42542;48.360;10.958;2023-02-03T00:08:55;7.22;;;2.00;;
56667;SDS011;42542;48.360;10.958;2023-02-03T00:11:59;7.53;;;1.83;;
56667;SDS011;42542;48.360;10.958;2023-02-03T00:15:01;6.47;;;1.75;;
56667;SDS011;42542;48.360;10.958;2023-02-03T00:18:03;8.90;;;2.30;;
56667;SDS011;42542;48.360;10.958;2023-02-03T00:21:05;10.40;;;2.20;;
56667;SDS011;42542;48.360;10.958;2023-02-03T00:24:06;6.55;;;1.80;;
56667;SDS011;42542;48.360;10.958;2023-02-03T00:27:08;6.78;;;1.88;;
56667;SDS011;42542;48.360;10.958;2023-02-03T00:30:10;7.30;;;1.98;;
56667;SDS011;42542;48.360;10.958;2023-02-03T00:33:12;5.27;;;1.47;;
56667;SDS011;42542;48.360;10.958;2023-02-03T00:36:14;7.28;;;1.67;;
56667;SDS011;42542;48.360;10.958;2023-02-03T00:39:16;5.78;;;1.60;;
56667;SDS011;42542;48.360;10.958;2023-02-03T00:42:19;6.73;;;1.50;;
56667;SDS011;42542;48.360;10.958;2023-02-03T00:45:21;7.18;;;1.45;;
56667;SDS011;42542;48.360;10.958;2023-02-03T00:48:23;5.13;;;1.50;;
56667;SDS011;42542;48.360;10.958;2023-02-03T00:51:25;7.10;;;1.60;;
56667;SDS011;42542;48.360;10.958;2023-02-03T00:54:28;7.72;;;1.83;;
56667;SDS011;42542;48.360;10.958;2023-02-03T00:57:29;4.90;;;1.38;;
56667;SDS011;42542;48.360;10.958;2023-02-03T01:00:31;4.38;;;1.15;;
56667;SDS011;42542;48.360;10.958;2023-02-03T01:03:33;5.50;;;1.30;;
56667;SDS011;42542;48.360;10.958;2023-02-03T01:06:34;6.22;;;1.50;;
56667;SDS011;42542;48.360;10.958;2023-02-03T01:09:36;4.97;;;1.45;;
56667;SDS011;42542;48.360;10.958;2023-02-03T01:12:38;6.27;;;1.50;;
56667;SDS011;42542;48.360;10.958;2023-02-03T01:15:46;6.80;;;1.50;;
56667;SDS011;42542;48.360;10.958;2023-02-03T01:18:48;8.45;;;1.38;;
56667;SDS011;42542;48.360;10.958;2023-02-03T01:21:51;7.63;;;1.77;;
56667;SDS011;42542;48.360;10.958;2023-02-03T01:24:52;5.15;;;1.73;;
56667;SDS011;42542;48.360;10.958;2023-02-03T01:27:54;5.22;;;1.50;;
56667;SDS011;42542;48.360;10.958;2023-02-03T01:30:57;5.43;;;1.33;;
56667;SDS011;42542;48.360;10.958;2023-02-03T01:34:11;7.83;;;1.60;;
56667;SDS011;42542;48.360;10.958;2023-02-03T01:37:13;8.10;;;1.90;;
56667;SDS011;42542;48.360;10.958;2023-02-03T01:40:17;8.05;;;2.42;;
56667;SDS011;42542;48.360;10.958;2023-02-03T01:43:32;6.60;;;1.60;;
56667;SDS011;42542;48.360;10.958;2023-02-03T01:46:45;6.57;;;1.45;;
56667;SDS011;42542;48.360;10.958;2023-02-03T01:50:13;5.75;;;1.27;;
56667;SDS011;42542;48.360;10.958;2023-02-03T01:53:17;6.28;;;1.60;;
56667;SDS011;42542;48.360;10.958;2023-02-03T01:56:19;7.65;;;1.58;;
56667;SDS011;42542;48.360;10.958;2023-02-03T01:59:22;6.28;;;1.40;;
56667;SDS011;42542;48.360;10.958;2023-02-03T02:02:25;4.65;;;1.30;;
56667;SDS011;42542;48.360;10.958;2023-02-03T02:05:31;7.07;;;1.53;;
56667;SDS011;42542;48.360;10.958;2023-02-03T02:08:45;5.32;;;1.30;;
56667;SDS011;42542;48.360;10.958;2023-02-03T02:11:51;5.32;;;1.40;;
56667;SDS011;42542;48.360;10.958;2023-02-03T02:14:52;4.90;;;1.40;;
56667;SDS011;42542;48.360;10.958;2023-02-03T02:21:23;5.35;;;1.30;;
56667;SDS011;42542;48.360;10.958;2023-02-03T02:27:47;4.82;;;1.33;;
56667;SDS011;42542;48.360;10.958;2023-02-03T02:41:09;4.72;;;1.20;;
56667;SDS011;42542;48.360;10.958;2023-02-03T02:44:26;7.18;;;1.38;;
56667;SDS011;42542;48.360;10.958;2023-02-03T02:47:34;6.57;;;1.20;;
56667;SDS011;42542;48.360;10.958;2023-02-03T02:50:37;5.00;;;1.13;;
56667;SDS011;42542;48.360;10.958;2023-02-03T02:53:45;4.95;;;1.20;;
56667;SDS011;42542;48.360;10.958;2023-02-03T02:56:51;5.72;;;1.45;;
56667;SDS011;42542;48.360;10.958;2023-02-03T02:59:57;6.38;;;1.40;;
56667;SDS011;42542;48.360;10.958;2023-02-03T03:03:06;5.03;;;1.30;;
56667;SDS011;42542;48.360;10.958;2023-02-03T03:06:28;5.35;;;1.30;;
56667;SDS011;42542;48.360;10.958;2023-02-03T03:09:53;5.07;;;1.20;;
56667;SDS011;42542;48.360;10.958;2023-02-03T03:13:01;4.03;;;1.20;;
56667;SDS011;42542;48.360;10.958;2023-02-03T03:16:08;5.28;;;1.40;;
56667;SDS011;42542;48.360;10.958;2023-02-03T03:19:12;4.40;;;1.20;;
56667;SDS011;42542;48.360;10.958;2023-02-03T03:22:19;4.35;;;1.30;;
56667;SDS011;42542;48.360;10.958;2023-02-03T03:25:25;6.00;;;1.30;;
56667;SDS011;42542;48.360;10.958;2023-02-03T03:28:34;5.88;;;1.38;;
56667;SDS011;42542;48.360;10.958;2023-02-03T03:31:42;4.80;;;1.40;;
56667;SDS011;42542;48.360;10.958;2023-02-03T03:34:45;8.63;;;1.60;;
56667;SDS011;42542;48.360;10.958;2023-02-03T03:37:50;7.13;;;1.25;;
56667;SDS011;42542;48.360;10.958;2023-02-03T03:41:00;4.63;;;1.20;;
56667;SDS011;42542;48.360;10.958;2023-02-03T03:44:08;6.78;;;1.60;;
56667;SDS011;42542;48.360;10.958;2023-02-03T03:47:23;5.85;;;1.50;;
56667;SDS011;42542;48.360;10.958;2023-02-03T03:50:32;4.83;;;1.17;;
56667;SDS011;42542;48.360;10.958;2023-02-03T03:53:39;7.63;;;1.30;;
56667;SDS011;42542;48.360;10.958;2023-02-03T03:59:53;5.95;;;1.40;;
56667;SDS011;42542;48.360;10.958;2023-02-03T04:02:55;4.97;;;1.42;;
56667;SDS011;42542;48.360;10.958;2023-02-03T04:06:00;7.55;;;1.60;;
56667;SDS011;42542;48.360;10.958;2023-02-03T04:09:02;5.10;;;1.35;;
56667;SDS011;42542;48.360;10.958;2023-02-03T04:12:04;5.77;;;1.40;;
56667;SDS011;42542;48.360;10.958;2023-02-03T04:15:07;6.97;;;1.60;;
56667;SDS011;42542;48.360;10.958;2023-02-03T04:18:09;5.57;;;1.42;;
56667;SDS011;42542;48.360;10.958;2023-02-03T04:21:13;6.33;;;1.53;;
56667;SDS011;42542;48.360;10.958;2023-02-03T04:24:15;5.38;;;1.20;;
56667;SDS011;42542;48.360;10.958;2023-02-03T04:27:16;4.82;;;1.25;;
56667;SDS011;42542;48.360;10.958;2023-02-03T04:30:18;7.63;;;1.50;;
56667;SDS011;42542;48.360;10.958;2023-02-03T04:33:20;6.07;;;1.48;;
56667;SDS011;42542;48.360;10.958;2023-02-03T04:36:21;6.28;;;1.60;;
56667;SDS011;42542;48.360;10.958;2023-02-03T04:39:23;4.95;;;1.20;;
56667;SDS011;42542;48.360;10.958;2023-02-03T04:42:25;5.07;;;1.40;;
56667;SDS011;42542;48.360;10.958;2023-02-03T04:45:26;4.60;;;1.30;;
56667;SDS011;42542;48.360;10.958;2023-02-03T04:48:28;5.28;;;1.25;;
56667;SDS011;42542;48.360;10.958;2023-02-03T04:51:30;5.70;;;1.50;;
56667;SDS011;42542;48.360;10.958;2023-02-03T04:54:31;6.57;;;1.30;;
56667;SDS011;42542;48.360;10.958;2023-02-03T04:57:33;4.72;;;1.35;;
56667;SDS011;42542;48.360;10.958;2023-02-03T05:00:34;5.55;;;1.30;;
56667;SDS011;42542;48.360;10.958;2023-02-03T05:03:36;5.80;;;1.45;;
56667;SDS011;42542;48.360;10.958;2023-02-03T05:06:38;6.25;;;1.17;;
56667;SDS011;42542;48.360;10.958;2023-02-03T05:09:40;5.05;;;1.13;;
56667;SDS011;42542;48.360;10.958;2023-02-03T05:12:41;7.13;;;1.40;;
56667;SDS011;42542;48.360;10.958;2023-02-03T05:15:44;5.70;;;1.30;;
56667;SDS011;42542;48.360;10.958;2023-02-03T05:18:45;4.88;;;1.20;;
56667;SDS011;42542;48.360;10.958;2023-02-03T05:21:47;5.57;;;1.20;;
56667;SDS011;42542;48.360;10.958;2023-02-03T05:24:48;5.32;;;1.10;;
56667;SDS011;42542;48.360;10.958;2023-02-03T05:27:50;4.85;;;1.05;;
56667;SDS011;42542;48.360;10.958;2023-02-03T05:30:51;3.90;;;1.10;;
56667;SDS011;42542;48.360;10.958;2023-02-03T05:33:53;4.78;;;1.20;;
56667;SDS011;42542;48.360;10.958;2023-02-03T05:36:55;3.75;;;1.10;;
56667;SDS011;42542;48.360;10.958;2023-02-03T05:39:56;5.75;;;1.50;;
56667;SDS011;42542;48.360;10.958;2023-02-03T05:43:18;3.27;;;0.93;;
56667;SDS011;42542;48.360;10.958;2023-02-03T05:46:19;6.07;;;1.52;;
56667;SDS011;42542;48.360;10.958;2023-02-03T05:49:21;7.07;;;1.35;;
56667;SDS011;42542;48.360;10.958;2023-02-03T05:52:23;4.40;;;1.20;;
56667;SDS011;42542;48.360;10.958;2023-02-03T05:55:26;4.25;;;1.10;;
56667;SDS011;42542;48.360;10.958;2023-02-03T05:58:28;4.93;;;1.33;;
56667;SDS011;42542;48.360;10.958;2023-02-03T06:01:30;5.53;;;1.25;;
56667;SDS011;42542;48.360;10.958;2023-02-03T06:04:32;6.43;;;1.70;;
56667;SDS011;42542;48.360;10.958;2023-02-03T06:07:34;7.35;;;2.15;;
56667;SDS011;42542;48.360;10.958;2023-02-03T06:10:35;6.13;;;1.50;;
56667;SDS011;42542;48.360;10.958;2023-02-03T06:13:37;6.47;;;1.60;;
56667;SDS011;42542;48.360;10.958;2023-02-03T06:16:39;7.35;;;2.53;;
56667;SDS011;42542;48.360;10.958;2023-02-03T06:19:41;6.47;;;1.42;;
56667;SDS011;42542;48.360;10.958;2023-02-03T06:22:43;8.83;;;2.57;;
56667;SDS011;42542;48.360;10.958;2023-02-03T06:25:49;6.63;;;1.45;;
56667;SDS011;42542;48.360;10.958;2023-02-03T06:28:52;6.45;;;1.35;;
56667;SDS011;42542;48.360;10.958;2023-02-03T06:31:53;5.28;;;1.50;;
56667;SDS011;42542;48.360;10.958;2023-02-03T06:34:56;4.90;;;1.42;;
56667;SDS011;42542;48.360;10.958;2023-02-03T06:37:57;7.72;;;1.50;;
56667;SDS011;42542;48.360;10.958;2023-02-03T06:40:59;6.03;;;1.60;;
56667;SDS011;42542;48.360;10.958;2023-02-03T06:44:01;6.40;;;1.50;;
56667;SDS011;42542;48.360;10.958;2023-02-03T06:47:03;5.65;;;1.60;;
56667;SDS011;42542;48.360;10.958;2023-02-03T06:50:05;5.72;;;1.50;;
56667;SDS011;42542;48.360;10.958;2023-02-03T06:53:07;8.10;;;1.87;;
56667;SDS011;42542;48.360;10.958;2023-02-03T06:56:13;5.47;;;1.50;;
56667;SDS011;42542;48.360;10.958;2023-02-03T06:59:15;6.22;;;1.77;;
56667;SDS011;42542;48.360;10.958;2023-02-03T07:02:17;6.53;;;1.50;;
56667;SDS011;42542;48.360;10.958;2023-02-03T07:08:54;6.30;;;1.45;;
56667;SDS011;42542;48.360;10.958;2023-02-03T07:11:56;6.75;;;1.40;;
56667;SDS011;42542;48.360;10.958;2023-02-03T07:14:58;5.73;;;1.50;;
56667;SDS011;42542;48.360;10.958;2023-02-03T07:26:59;5.63;;;1.20;;
56667;SDS011;42542;48.360;10.958;2023-02-03T07:30:05;5.65;;;1.02;;
56667;SDS011;42542;48.360;10.958;2023-02-03T07:33:07;4.45;;;1.20;;
56667;SDS011;42542;48.360;10.958;2023-02-03T07:36:09;6.60;;;1.25;;
56667;SDS011;42542;48.360;10.958;2023-02-03T07:39:12;4.90;;;1.30;;
56667;SDS011;42542;48.360;10.958;2023-02-03T07:42:14;5.57;;;1.45;;
56667;SDS011;42542;48.360;10.958;2023-02-03T07:45:19;4.60;;;1.10;;
56667;SDS011;42542;48.360;10.958;2023-02-03T07:48:22;5.53;;;1.77;;
56667;SDS011;42542;48.360;10.958;2023-02-03T07:51:24;6.35;;;2.13;;
56667;SDS011;42542;48.360;10.958;2023-02-03T07:54:26;6.20;;;1.77;;
56667;SDS011;42542;48.360;10.958;2023-02-03T07:57:28;5.23;;;1.30;;
56667;SDS011;42542;48.360;10.958;2023-02-03T08:00:30;6.22;;;1.30;;
56667;SDS011;42542;48.360;10.958;2023-02-03T08:03:31;5.00;;;1.20;;
56667;SDS011;42542;48.360;10.958;2023-02-03T08:06:33;6.10;;;1.35;;
56667;SDS011;42542;48.360;10.958;2023-02-03T08:09:35;6.65;;;1.40;;
56667;SDS011;42542;48.360;10.958;2023-02-03T08:12:37;5.22;;;1.13;;
56667;SDS011;42542;48.360;10.958;2023-02-03T08:15:39;5.03;;;1.60;;
56667;SDS011;42542;48.360;10.958;2023-02-03T08:18:41;3.80;;;0.80;;
56667;SDS011;42542;48.360;10.958;2023-02-03T08:21:43;5.07;;;1.05;;
56667;SDS011;42542;48.360;10.958;2023-02-03T08:24:46;3.38;;;0.90;;
56667;SDS011;42542;48.360;10.958;2023-02-03T08:27:48;6.33;;;1.20;;
56667;SDS011;42542;48.360;10.958;2023-02-03T08:30:50;4.63;;;1.00;;
56667;SDS011;42542;48.360;10.958;2023-02-03T08:33:51;4.25;;;1.10;;
56667;SDS011;42542;48.360;10.958;2023-02-03T08:36:54;4.72;;;1.20;;
56667;SDS011;42542;48.360;10.958;2023-02-03T08:39:55;5.07;;;1.17;;
56667;SDS011;42542;48.360;10.958;2023-02-03T08:42:58;3.92;;;1.00;;
56667;SDS011;42542;48.360;10.958;2023-02-03T08:46:03;6.13;;;1.20;;
56667;SDS011;42542;48.360;10.958;2023-02-03T08:49:06;3.87;;;0.90;;
56667;SDS011;42542;48.360;10.958;2023-02-03T08:52:09;4.15;;;1.00;;
56667;SDS011;42542;48.360;10.958;2023-02-03T08:55:12;3.85;;;1.00;;
56667;SDS011;42542;48.360;10.958;2023-02-03T08:58:14;4.80;;;1.20;;
56667;SDS011;42542;48.360;10.958;2023-02-03T09:01:16;5.25;;;1.20;;
56667;SDS011;42542;48.360;10.958;2023-02-03T09:04:19;4.55;;;1.00;;
56667;SDS011;42542;48.360;10.958;2023-02-03T09:07:25;3.65;;;0.90;;
56667;SDS011;42542;48.360;10.958;2023-02-03T09:10:27;5.25;;;1.23;;
56667;SDS011;42542;48.360;10.958;2023-02-03T09:13:29;4.13;;;0.98;;
56667;SDS011;42542;48.360;10.958;2023-02-03T09:16:31;4.07;;;0.90;;
56667;SDS011;42542;48.360;10.958;2023-02-03T09:19:33;4.63;;;1.00;;
56667;SDS011;42542;48.360;10.958;2023-02-03T09:22:36;6.90;;;1.23;;
56667;SDS011;42542;48.360;10.958;2023-02-03T09:25:39;5.03;;;0.90;;
56667;SDS011;42542;48.360;10.958;2023-02-03T09:28:40;4.47;;;1.20;;
56667;SDS011;42542;48.360;10.958;2023-02-03T09:31:44;4.75;;;1.10;;
56667;SDS011;42542;48.360;10.958;2023-02-03T09:34:47;4.93;;;1.25;;
56667;SDS011;42542;48.360;10.958;2023-02-03T09:37:48;4.65;;;1.10;;
56667;SDS011;42542;48.360;10.958;2023-02-03T09:40:55;4.07;;;1.02;;
56667;SDS011;42542;48.360;10.958;2023-02-03T09:44:13;9.27;;;2.17;;
56667;SDS011;42542;48.360;10.958;2023-02-03T09:47:20;6.18;;;1.88;;
56667;SDS011;42542;48.360;10.958;2023-02-03T09:50:27;8.47;;;2.47;;
56667;SDS011;42542;48.360;10.958;2023-02-03T09:53:34;5.60;;;1.70;;
56667;SDS011;42542;48.360;10.958;2023-02-03T09:56:46;6.80;;;2.40;;
56667;SDS011;42542;48.360;10.958;2023-02-03T09:59:54;8.40;;;3.20;;
56667;SDS011;42542;48.360;10.958;2023-02-03T10:13:39;6.47;;;1.52;;
56667;SDS011;42542;48.360;10.958;2023-02-03T10:16:57;5.50;;;1.33;;
56667;SDS011;42542;48.360;10.958;2023-02-03T10:23:48;4.03;;;1.13;;
56667;SDS011;42542;48.360;10.958;2023-02-03T10:26:51;4.60;;;1.10;;
56667;SDS011;42542;48.360;10.958;2023-02-03T10:29:59;5.70;;;1.30;;
56667;SDS011;42542;48.360;10.958;2023-02-03T10:33:19;4.40;;;1.07;;
56667;SDS011;42542;48.360;10.958;2023-02-03T10:36:22;4.57;;;1.10;;
56667;SDS011;42542;48.360;10.958;2023-02-03T10:39:42;6.07;;;1.30;;
56667;SDS011;42542;48.360;10.958;2023-02-03T10:42:49;4.20;;;1.10;;
56667;SDS011;42542;48.360;10.958;2023-02-03T10:46:11;4.82;;;1.20;;
56667;SDS011;42542;48.360;10.958;2023-02-03T10:49:13;4.93;;;1.05;;
56667;SDS011;42542;48.360;10.958;2023-02-03T10:52:24;5.22;;;1.17;;
56667;SDS011;42542;48.360;10.958;2023-02-03T10:55:34;4.73;;;1.10;;
56667;SDS011;42542;48.360;10.958;2023-02-03T10:58:36;4.65;;;1.30;;
56667;SDS011;42542;48.360;10.958;2023-02-03T11:01:40;5.40;;;1.20;;
56667;SDS011;42542;48.360;10.958;2023-02-03T11:04:43;4.60;;;1.20;;
56667;SDS011;42542;48.360;10.958;2023-02-03T11:07:45;4.10;;;1.20;;
56667;SDS011;42542;48.360;10.958;2023-02-03T11:10:47;4.43;;;1.23;;
56667;SDS011;42542;48.360;10.958;2023-02-03T11:13:52;4.03;;;1.25;;
56667;SDS011;42542;48.360;10.958;2023-02-03T11:16:55;5.18;;;1.60;;
56667;SDS011;42542;48.360;10.958;2023-02-03T11:20:01;5.30;;;1.70;;
56667;SDS011;42542;48.360;10.958;2023-02-03T11:23:13;5.10;;;1.70;;
56667;SDS011;42542;48.360;10.958;2023-02-03T11:26:17;5.20;;;1.53;;
56667;SDS011;42542;48.360;10.958;2023-02-03T11:29:24;4.85;;;1.40;;
56667;SDS011;42542;48.360;10.958;2023-02-03T11:32:35;4.65;;;1.38;;
56667;SDS011;42542;48.360;10.958;2023-02-03T11:35:52;5.57;;;1.60;;
56667;SDS011;42542;48.360;10.958;2023-02-03T11:39:16;4.95;;;1.30;;
56667;SDS011;42542;48.360;10.958;2023-02-03T11:42:21;4.15;;;1.20;;
56667;SDS011;42542;48.360;10.958;2023-02-03T11:45:41;5.72;;;1.30;;
56667;SDS011;42542;48.360;10.958;2023-02-03T11:48:53;3.97;;;1.10;;
56667;SDS011;42542;48.360;10.958;2023-02-03T12:02:21;4.13;;;1.02;;
56667;SDS011;42542;48.360;10.958;2023-02-03T12:12:02;3.75;;;1.00;;
56667;SDS011;42542;48.360;10.958;2023-02-03T12:15:18;5.47;;;1.27;;
56667;SDS011;42542;48.360;10.958;2023-02-03T12:31:08;4.03;;;1.00;;
56667;SDS011;42542;48.360;10.958;2023-02-03T12:34:23;4.32;;;1.00;;
56667;SDS011;42542;48.360;10.958;2023-02-03T12:41:15;4.10;;;1.00;;
56667;SDS011;42542;48.360;10.958;2023-02-03T12:44:28;4.43;;;1.00;;
56667;SDS011;42542;48.360;10.958;2023-02-03T12:47:37;5.18;;;1.02;;
56667;SDS011;42542;48.360;10.958;2023-02-03T12:50:55;4.60;;;1.10;;
56667;SDS011;42542;48.360;10.958;2023-02-03T12:57:43;4.00;;;1.20;;
56667;SDS011;42542;48.360;10.958;2023-02-03T13:04:22;3.67;;;1.17;;
56667;SDS011;42542;48.360;10.958;2023-02-03T13:07:29;4.50;;;0.80;;
56667;SDS011;42542;48.360;10.958;2023-02-03T13:10:50;4.28;;;1.02;;
56667;SDS011;42542;48.360;10.958;2023-02-03T13:14:17;3.63;;;0.87;;
56667;SDS011;42542;48.360;10.958;2023-02-03T13:17:28;3.88;;;0.90;;
56667;SDS011;42542;48.360;10.958;2023-02-03T13:20:34;5.30;;;1.00;;
56667;SDS011;42542;48.360;10.958;2023-02-03T13:23:42;4.78;;;0.90;;
56667;SDS011;42542;48.360;10.958;2023-02-03T13:33:31;3.83;;;1.00;;
56667;SDS011;42542;48.360;10.958;2023-02-03T13:43:28;5.35;;;1.58;;
56667;SDS011;42542;48.360;10.958;2023-02-03T13:46:39;5.70;;;1.50;;
56667;SDS011;42542;48.360;10.958;2023-02-03T13:49:42;4.38;;;1.15;;
56667;SDS011;42542;48.360;10.958;2023-02-03T13:52:59;3.72;;;1.00;;
56667;SDS011;42542;48.360;10.958;2023-02-03T13:56:43;4.00;;;1.10;;
56667;SDS011;42542;48.360;10.958;2023-02-03T14:03:00;3.40;;;0.90;;
56667;SDS011;42542;48.360;10.958;2023-02-03T14:06:00;2.92;;;0.90;;
56667;SDS011;42542;48.360;10.958;2023-02-03T14:09:19;4.33;;;1.23;;
56667;SDS011;42542;48.360;10.958;2023-02-03T14:12:34;3.90;;;1.10;;
56667;SDS011;42542;48.360;10.958;2023-02-03T14:15:37;4.57;;;1.08;;
56667;SDS011;42542;48.360;10.958;2023-02-03T14:18:43;4.30;;;1.10;;
56667;SDS011;42542;48.360;10.958;2023-02-03T14:22:07;3.95;;;0.95;;
56667;SDS011;42542;48.360;10.958;2023-02-03T14:25:09;3.47;;;0.80;;
56667;SDS011;42542;48.360;10.958;2023-02-03T14:28:12;5.28;;;1.60;;
56667;SDS011;42542;48.360;10.958;2023-02-03T14:37:54;6.95;;;2.50;;
56667;SDS011;42542;48.360;10.958;2023-02-03T14:40:59;8.63;;;3.27;;
56667;SDS011;42542;48.360;10.958;2023-02-03T14:54:36;12.07;;;3.30;;
56667;SDS011;42542;48.360;10.958;2023-02-03T14:57:50;6.00;;;1.80;;
56667;SDS011;42542;48.360;10.958;2023-02-03T15:00:55;7.45;;;2.75;;
56667;SDS011;42542;48.360;10.958;2023-02-03T15:13:39;5.97;;;1.70;;
56667;SDS011;42542;48.360;10.958;2023-02-03T15:16:41;7.47;;;1.80;;
56667;SDS011;42542;48.360;10.958;2023-02-03T15:19:44;7.30;;;2.13;;
56667;SDS011;42542;48.360;10.958;2023-02-03T15:22:45;5.00;;;1.50;;
56667;SDS011;42542;48.360;10.958;2023-02-03T15:25:54;5.50;;;1.20;;
56667;SDS011;42542;48.360;10.958;2023-02-03T15:29:00;4.05;;;1.08;;
56667;SDS011;42542;48.360;10.958;2023-02-03T15:32:08;7.88;;;2.97;;
56667;SDS011;42542;48.360;10.958;2023-02-03T15:35:16;7.93;;;2.58;;
56667;SDS011;42542;48.360;10.958;2023-02-03T15:38:22;9.35;;;2.70;;
56667;SDS011;42542;48.360;10.958;2023-02-03T15:41:44;3.70;;;0.90;;
56667;SDS011;42542;48.360;10.958;2023-02-03T15:44:52;4.30;;;1.27;;
56667;SDS011;42542;48.360;10.958;2023-02-03T15:48:00;5.53;;;1.27;;
56667;SDS011;42542;48.360;10.958;2023-02-03T15:54:37;4.97;;;1.27;;
56667;SDS011;42542;48.360;10.958;2023-02-03T15:57:43;5.90;;;1.85;;
56667;SDS011;42542;48.360;10.958;2023-02-03T16:00:52;8.65;;;2.50;;
56667;SDS011;42542;48.360;10.958;2023-02-03T16:03:59;4.53;;;1.40;;
56667;SDS011;42542;48.360;10.958;2023-02-03T16:07:01;3.58;;;1.10;;
56667;SDS011;42542;48.360;10.958;2023-02-03T16:10:03;5.50;;;1.33;;
56667;SDS011;42542;48.360;10.958;2023-02-03T16:13:16;3.53;;;1.10;;
56667;SDS011;42542;48.360;10.958;2023-02-03T16:16:22;4.83;;;1.03;;
56667;SDS011;42542;48.360;10.958;2023-02-03T16:19:28;3.83;;;1.10;;
56667;SDS011;42542;48.360;10.958;2023-02-03T16:22:38;3.50;;;1.00;;
56667;SDS011;42542;48.360;10.958;2023-02-03T16:25:41;3.27;;;0.90;;
56667;SDS011;42542;48.360;10.958;2023-02-03T16:28:43;3.85;;;1.10;;
56667;SDS011;42542;48.360;10.958;2023-02-03T16:32:28;3.72;;;1.10;;
56667;SDS011;42542;48.360;10.958;2023-02-03T16:35:48;4.40;;;1.17;;
56667;SDS011;42542;48.360;10.958;2023-02-03T16:39:10;4.10;;;1.15;;
56667;SDS011;42542;48.360;10.958;2023-02-03T16:42:37;5.65;;;1.20;;
56667;SDS011;42542;48.360;10.958;2023-02-03T16:45:59;4.35;;;1.25;;
56667;SDS011;42542;48.360;10.958;2023-02-03T16:49:20;6.43;;;1.80;;
56667;SDS011;42542;48.360;10.958;2023-02-03T16:52:40;6.45;;;2.10;;
56667;SDS011;42542;48.360;10.958;2023-02-03T16:55:42;5.70;;;1.60;;
56667;SDS011;42542;48.360;10.958;2023-02-03T16:58:44;5.20;;;1.60;;
56667;SDS011;42542;48.360;10.958;2023-02-03T17:01:46;5.03;;;1.40;;
56667;SDS011;42542;48.360;10.958;2023-02-03T17:04:47;5.70;;;1.58;;
56667;SDS011;42542;48.360;10.958;2023-02-03T17:07:49;5.00;;;1.50;;
56667;SDS011;42542;48.360;10.958;2023-02-03T17:10:51;4.80;;;1.40;;
56667;SDS011;42542;48.360;10.958;2023-02-03T17:13:53;5.22;;;1.50;;
56667;SDS011;42542;48.360;10.958;2023-02-03T17:16:55;7.50;;;1.50;;
56667;SDS011;42542;48.360;10.958;2023-02-03T17:19:57;8.40;;;2.73;;
56667;SDS011;42542;48.360;10.958;2023-02-03T17:22:59;8.60;;;2.20;;
56667;SDS011;42542;48.360;10.958;2023-02-03T17:26:01;7.75;;;1.80;;
56667;SDS011;42542;48.360;10.958;2023-02-03T17:29:03;5.87;;;1.70;;
56667;SDS011;42542;48.360;10.958;2023-02-03T17:32:05;5.80;;;1.70;;
56667;SDS011;42542;48.360;10.958;2023-02-03T17:35:07;4.93;;;1.30;;
56667;SDS011;42542;48.360;10.958;2023-02-03T17:38:09;7.10;;;2.33;;
56667;SDS011;42542;48.360;10.958;2023-02-03T17:41:12;5.43;;;1.50;;
56667;SDS011;42542;48.360;10.958;2023-02-03T17:44:33;4.22;;;1.13;;
56667;SDS011;42542;48.360;10.958;2023-02-03T17:47:53;4.00;;;1.20;;
56667;SDS011;42542;48.360;10.958;2023-02-03T17:51:22;6.43;;;2.00;;
56667;SDS011;42542;48.360;10.958;2023-02-03T17:54:47;6.65;;;2.30;;
56667;SDS011;42542;48.360;10.958;2023-02-03T17:57:48;6.75;;;2.30;;
56667;SDS011;42542;48.360;10.958;2023-02-03T18:00:50;10.50;;;3.70;;
56667;SDS011;42542;48.360;10.958;2023-02-03T18:03:56;13.80;;;5.13;;
56667;SDS011;42542;48.360;10.958;2023-02-03T18:06:59;8.40;;;2.75;;
56667;SDS011;42542;48.360;10.958;2023-02-03T18:10:00;9.48;;;2.85;;
56667;SDS011;42542;48.360;10.958;2023-02-03T18:13:02;6.60;;;2.10;;
56667;SDS011;42542;48.360;10.958;2023-02-03T18:16:06;5.95;;;2.08;;
56667;SDS011;42542;48.360;10.958;2023-02-03T18:19:10;5.25;;;1.50;;
56667;SDS011;42542;48.360;10.958;2023-02-03T18:22:14;6.27;;;1.90;;
56667;SDS011;42542;48.360;10.958;2023-02-03T18:25:15;4.57;;;1.40;;
56667;SDS011;42542;48.360;10.958;2023-02-03T18:28:17;5.60;;;1.45;;
56667;SDS011;42542;48.360;10.958;2023-02-03T18:31:19;5.43;;;1.53;;
56667;SDS011;42542;48.360;10.958;2023-02-03T18:34:21;4.90;;;1.42;;
56667;SDS011;42542;48.360;10.958;2023-02-03T18:37:24;5.20;;;1.40;;
56667;SDS011;42542;48.360;10.958;2023-02-03T18:40:25;5.28;;;1.63;;
56667;SDS011;42542;48.360;10.958;2023-02-03T18:43:30;5.32;;;1.40;;
56667;SDS011;42542;48.360;10.958;2023-02-03T18:46:32;5.07;;;1.40;;
56667;SDS011;42542;48.360;10.958;2023-02-03T18:49:34;5.03;;;1.55;;
56667;SDS011;42542;48.360;10.958;2023-02-03T18:52:36;4.93;;;1.67;;
56667;SDS011;42542;48.360;10.958;2023-02-03T18:55:44;7.68;;;1.40;;
56667;SDS011;42542;48.360;10.958;2023-02-03T18:58:45;5.65;;;1.77;;
56667;SDS011;42542;48.360;10.958;2023-02-03T19:01:47;4.80;;;1.40;;
56667;SDS011;42542;48.360;10.958;2023-02-03T19:04:49;4.65;;;1.40;;
56667;SDS011;42542;48.360;10.958;2023-02-03T19:08:06;5.55;;;1.67;;
56667;SDS011;42542;48.360;10.958;2023-02-03T19:11:07;4.78;;;1.40;;
56667;SDS011;42542;48.360;10.958;2023-02-03T19:14:10;4.10;;;1.40;;
56667;SDS011;42542;48.360;10.958;2023-02-03T19:17:13;6.55;;;1.60;;
56667;SDS011;42542;48.360;10.958;2023-02-03T19:20:14;5.22;;;1.67;;
56667;SDS011;42542;48.360;10.958;2023-02-03T19:28:08;7.47;;;1.80;;
56667;SDS011;42542;48.360;10.958;2023-02-03T19:31:17;6.57;;;2.20;;
56667;SDS011;42542;48.360;10.958;2023-02-03T19:34:19;6.93;;;2.00;;
56667;SDS011;42542;48.360;10.958;2023-02-03T19:37:21;6.85;;;2.20;;
56667;SDS011;42542;48.360;10.958;2023-02-03T19:40:22;8.10;;;2.22;;
56667;SDS011;42542;48.360;10.958;2023-02-03T19:43:24;7.68;;;2.20;;
56667;SDS011;42542;48.360;10.958;2023-02-03T19:46:25;6.22;;;1.50;;
56667;SDS011;42542;48.360;10.958;2023-02-03T19:49:31;4.95;;;1.60;;
56667;SDS011;42542;48.360;10.958;2023-02-03T19:52:32;4.95;;;1.50;;
56667;SDS011;42542;48.360;10.958;2023-02-03T19:55:34;4.77;;;1.40;;
56667;SDS011;42542;48.360;10.958;2023-02-03T19:58:36;6.25;;;1.67;;
56667;SDS011;42542;48.360;10.958;2023-02-03T20:01:38;7.63;;;1.60;;
56667;SDS011;42542;48.360;10.958;2023-02-03T20:04:41;7.53;;;1.90;;
56667;SDS011;42542;48.360;10.958;2023-02-03T20:07:44;5.93;;;1.88;;
56667;SDS011;42542;48.360;10.958;2023-02-03T20:10:45;6.20;;;2.10;;
56667;SDS011;42542;48.360;10.958;2023-02-03T20:13:47;7.43;;;2.90;;
56667;SDS011;42542;48.360;10.958;2023-02-03T20:16:49;11.00;;;4.20;;
56667;SDS011;42542;48.360;10.958;2023-02-03T20:19:51;6.95;;;2.30;;
56667;SDS011;42542;48.360;10.958;2023-02-03T20:22:52;7.15;;;2.30;;
56667;SDS011;42542;48.360;10.958;2023-02-03T20:25:54;6.10;;;1.80;;
56667;SDS011;42542;48.360;10.958;2023-02-03T20:28:55;4.97;;;1.55;;
56667;SDS011;42542;48.360;10.958;2023-02-03T20:31:57;5.47;;;1.80;;
56667;SDS011;42542;48.360;10.958;2023-02-03T20:34:59;6.63;;;1.77;;
56667;SDS011;42542;48.360;10.958;2023-02-03T20:38:00;5.97;;;1.63;;
56667;SDS011;42542;48.360;10.958;2023-02-03T20:41:02;5.57;;;1.80;;